Tennessee — FM3908 — position and weather

sailwx.info

Track history (hours):
 
Tides and Currents Weather Stations Pressure Air Temp Water Temp Dewpoint Dewpoint Depression Visibility Wind Speed Wind Dir Waves Ship Positions

Tennessee

Last reported at 2014-Aug-29 04:26 UTC. Time now 2014-Aug-29 05:31 UTC.
Position N 43°26' E 003°46'.

Length 80 m; draft 0.3 m.

Type: Ship. MMSI: 227095770.

Date/timePositionNaut miles runAvg speedWind from/ knotsBaromVisibWave heightAir tempDewpointWater temp
2014-Aug-29 04:26N 43°26' E 003°46'0 0.0
2014-Aug-29 00:17N 43°26' E 003°46'0 0.0
2014-Aug-28 23:32N 43°26' E 003°46'0 0.0
2014-Aug-28 22:27N 43°26' E 003°46'0 0.0
2014-Aug-28 21:29N 43°26' E 003°46'0 0.0
2014-Aug-28 20:28N 43°26' E 003°46'0 0.0
2014-Aug-28 17:11N 43°26' E 003°46'0 0.0
2014-Aug-28 16:04N 43°26' E 003°46'0 0.0
2014-Aug-28 15:25N 43°26' E 003°46'0 0.0
2014-Aug-28 14:32N 43°26' E 003°46'0 0.0
2014-Aug-28 13:33N 43°26' E 003°46'0 0.0
2014-Aug-28 12:25N 43°26' E 003°46'0 0.0
2014-Aug-28 10:24N 43°26' E 003°46'0 0.0
2014-Aug-28 09:25N 43°26' E 003°46'0 0.0
2014-Aug-28 08:18N 43°26' E 003°46'0 0.0
2014-Aug-28 07:11N 43°26' E 003°46'0 0.0
2014-Aug-28 06:06N 43°26' E 003°46'0 0.0
2014-Aug-28 05:23N 43°26' E 003°46'0 0.0
2014-Aug-28 04:14N 43°26' E 003°46'0 0.0
2014-Aug-28 00:31N 43°26' E 003°46'0 0.0
2014-Aug-27 23:33N 43°26' E 003°46'0 0.0
2014-Aug-27 22:29N 43°26' E 003°46'0 0.0
2014-Aug-27 21:22N 43°26' E 003°46'0 0.0
2014-Aug-27 20:29N 43°26' E 003°46'0 0.0
2014-Aug-27 17:33N 43°26' E 003°46'0 0.0
2014-Aug-27 15:29N 43°26' E 003°46'0 0.0
2014-Aug-27 14:23N 43°26' E 003°46'0 0.0
2014-Aug-27 13:27N 43°26' E 003°46'0 0.0
2014-Aug-27 10:30N 43°26' E 003°46'0 0.0
2014-Aug-27 07:18N 43°26' E 003°46'0 0.0
2014-Aug-27 06:24N 43°26' E 003°46'0 0.0
2014-Aug-27 05:22N 43°26' E 003°46'0 0.0
2014-Aug-27 03:05N 43°26' E 003°46'0 0.0
2014-Aug-27 01:32N 43°26' E 003°46'0 0.0
2014-Aug-27 00:18N 43°26' E 003°46'0 0.0
2014-Aug-26 23:31N 43°26' E 003°46'0 0.0
2014-Aug-26 22:33N 43°26' E 003°46'0 0.0
2014-Aug-26 21:29N 43°26' E 003°46'0 0.0
2014-Aug-26 20:28N 43°26' E 003°46'0 0.0
2014-Aug-26 19:32N 43°26' E 003°46'0 0.0
2014-Aug-26 18:33N 43°26' E 003°46'0 0.0
2014-Aug-26 17:32N 43°26' E 003°46'0 0.0
2014-Aug-26 16:34N 43°26' E 003°46'0 0.0
2014-Aug-26 15:30N 43°26' E 003°46'0 0.0
2014-Aug-26 14:30N 43°26' E 003°46'0 0.0
2014-Aug-26 13:32N 43°26' E 003°46'32 1.7
2014-Aug-25 18:20N 43°39' E 004°26'12 1.3
2014-Aug-25 09:32N 43°34' E 004°41'8 7.8
2014-Aug-25 08:33N 43°27' E 004°45'5 4.8
2014-Aug-25 07:32N 43°23' E 004°49'1 1.5
2014-Aug-25 06:33N 43°23' E 004°50'0 0.0
2014-Aug-25 05:33N 43°23' E 004°50'0 0.0
2014-Aug-25 04:33N 43°23' E 004°50'0 0.0
2014-Aug-25 03:27N 43°23' E 004°50'0 0.0
2014-Aug-25 02:33N 43°23' E 004°50'0 0.0
2014-Aug-25 01:33N 43°23' E 004°50'0 0.0
2014-Aug-25 00:12N 43°23' E 004°50'0 0.0
2014-Aug-24 23:33N 43°23' E 004°50'0 0.0
2014-Aug-24 22:11N 43°23' E 004°50'0 0.0
2014-Aug-24 21:33N 43°23' E 004°50'0 0.0
2014-Aug-24 20:33N 43°23' E 004°50'0 0.0
2014-Aug-24 19:33N 43°23' E 004°50'0 0.0
2014-Aug-24 18:33N 43°23' E 004°50'0 0.0
2014-Aug-24 17:33N 43°23' E 004°50'0 0.0
2014-Aug-24 15:30N 43°23' E 004°50'0 0.0
2014-Aug-24 14:28N 43°23' E 004°50'0 0.0
2014-Aug-24 13:33N 43°23' E 004°50'0 0.0
2014-Aug-24 12:33N 43°23' E 004°50'0 0.0
2014-Aug-24 11:33N 43°23' E 004°50'0 0.0
2014-Aug-24 10:31N 43°23' E 004°50'0 0.0
2014-Aug-24 09:33N 43°23' E 004°50'0 0.0
2014-Aug-24 08:33N 43°23' E 004°50'0 0.0
2014-Aug-24 07:33N 43°23' E 004°50'0 0.0
2014-Aug-24 06:33N 43°23' E 004°50'0 0.0
2014-Aug-24 05:24N 43°23' E 004°50'0 0.0
2014-Aug-24 04:33N 43°23' E 004°50'0 0.0
2014-Aug-24 03:30N 43°23' E 004°50'0 0.0
2014-Aug-24 02:24N 43°23' E 004°50'0 0.0
2014-Aug-24 01:33N 43°23' E 004°50'0 0.0
2014-Aug-24 00:33N 43°23' E 004°50'0 0.0
2014-Aug-23 23:33N 43°23' E 004°50'0 0.0
2014-Aug-23 22:33N 43°23' E 004°50'0 0.0
2014-Aug-23 21:33N 43°23' E 004°50'0 0.0
2014-Aug-23 20:33N 43°23' E 004°50'0 0.0
2014-Aug-23 19:33N 43°23' E 004°50'2 0.1
2014-Aug-23 00:33N 43°23' E 004°48'0 0.0
2014-Aug-22 23:19N 43°23' E 004°48'0 0.0
2014-Aug-22 22:30N 43°23' E 004°48'0 0.0
2014-Aug-22 21:24N 43°23' E 004°48'0 0.0
2014-Aug-22 20:30N 43°23' E 004°48'0 0.0
2014-Aug-22 19:33N 43°23' E 004°48'0 0.0
2014-Aug-22 17:20N 43°23' E 004°48'0 0.0
2014-Aug-22 16:33N 43°23' E 004°48'0 0.0
2014-Aug-22 12:19N 43°23' E 004°48'3 3.9
2014-Aug-22 11:33N 43°25' E 004°45'6 6.1
2014-Aug-22 10:32N 43°31' E 004°44'  
Track history (hours):
 
Tides and Currents Weather Stations Pressure Air Temp Water Temp Dewpoint Dewpoint Depression Visibility Wind Speed Wind Dir Waves Ship Positions

Tennessee

Last reported at 2014-Aug-29 04:26 UTC. Time now 2014-Aug-29 05:31 UTC.
Position N 43°26' E 003°46'.

Length 80 m; draft 0.3 m.

Type: Ship. MMSI: 227095770.

Date/timePositionNaut miles runAvg speedWind from/ knotsBaromVisibWave heightAir tempDewpointWater temp
2014-Aug-29 04:26N 43°26' E 003°46'0 0.0
2014-Aug-29 00:17N 43°26' E 003°46'0 0.0
2014-Aug-28 23:32N 43°26' E 003°46'0 0.0
2014-Aug-28 22:27N 43°26' E 003°46'0 0.0
2014-Aug-28 21:29N 43°26' E 003°46'0 0.0
2014-Aug-28 20:28N 43°26' E 003°46'0 0.0
2014-Aug-28 17:11N 43°26' E 003°46'0 0.0
2014-Aug-28 16:04N 43°26' E 003°46'0 0.0
2014-Aug-28 15:25N 43°26' E 003°46'0 0.0
2014-Aug-28 14:32N 43°26' E 003°46'0 0.0
2014-Aug-28 13:33N 43°26' E 003°46'0 0.0
2014-Aug-28 12:25N 43°26' E 003°46'0 0.0
2014-Aug-28 10:24N 43°26' E 003°46'0 0.0
2014-Aug-28 09:25N 43°26' E 003°46'0 0.0
2014-Aug-28 08:18N 43°26' E 003°46'0 0.0
2014-Aug-28 07:11N 43°26' E 003°46'0 0.0
2014-Aug-28 06:06N 43°26' E 003°46'0 0.0
2014-Aug-28 05:23N 43°26' E 003°46'0 0.0
2014-Aug-28 04:14N 43°26' E 003°46'0 0.0
2014-Aug-28 00:31N 43°26' E 003°46'0 0.0
2014-Aug-27 23:33N 43°26' E 003°46'0 0.0
2014-Aug-27 22:29N 43°26' E 003°46'0 0.0
2014-Aug-27 21:22N 43°26' E 003°46'0 0.0
2014-Aug-27 20:29N 43°26' E 003°46'0 0.0
2014-Aug-27 17:33N 43°26' E 003°46'0 0.0
2014-Aug-27 15:29N 43°26' E 003°46'0 0.0
2014-Aug-27 14:23N 43°26' E 003°46'0 0.0
2014-Aug-27 13:27N 43°26' E 003°46'0 0.0
2014-Aug-27 10:30N 43°26' E 003°46'0 0.0
2014-Aug-27 07:18N 43°26' E 003°46'0 0.0
2014-Aug-27 06:24N 43°26' E 003°46'0 0.0
2014-Aug-27 05:22N 43°26' E 003°46'0 0.0
2014-Aug-27 03:05N 43°26' E 003°46'0 0.0
2014-Aug-27 01:32N 43°26' E 003°46'0 0.0
2014-Aug-27 00:18N 43°26' E 003°46'0 0.0
2014-Aug-26 23:31N 43°26' E 003°46'0 0.0
2014-Aug-26 22:33N 43°26' E 003°46'0 0.0
2014-Aug-26 21:29N 43°26' E 003°46'0 0.0
2014-Aug-26 20:28N 43°26' E 003°46'0 0.0
2014-Aug-26 19:32N 43°26' E 003°46'0 0.0
2014-Aug-26 18:33N 43°26' E 003°46'0 0.0
2014-Aug-26 17:32N 43°26' E 003°46'0 0.0
2014-Aug-26 16:34N 43°26' E 003°46'0 0.0
2014-Aug-26 15:30N 43°26' E 003°46'0 0.0
2014-Aug-26 14:30N 43°26' E 003°46'0 0.0
2014-Aug-26 13:32N 43°26' E 003°46'32 1.7
2014-Aug-25 18:20N 43°39' E 004°26'12 1.3
2014-Aug-25 09:32N 43°34' E 004°41'8 7.8
2014-Aug-25 08:33N 43°27' E 004°45'5 4.8
2014-Aug-25 07:32N 43°23' E 004°49'1 1.5
2014-Aug-25 06:33N 43°23' E 004°50'0 0.0
2014-Aug-25 05:33N 43°23' E 004°50'0 0.0
2014-Aug-25 04:33N 43°23' E 004°50'0 0.0
2014-Aug-25 03:27N 43°23' E 004°50'0 0.0
2014-Aug-25 02:33N 43°23' E 004°50'0 0.0
2014-Aug-25 01:33N 43°23' E 004°50'0 0.0
2014-Aug-25 00:12N 43°23' E 004°50'0 0.0
2014-Aug-24 23:33N 43°23' E 004°50'0 0.0
2014-Aug-24 22:11N 43°23' E 004°50'0 0.0
2014-Aug-24 21:33N 43°23' E 004°50'0 0.0
2014-Aug-24 20:33N 43°23' E 004°50'0 0.0
2014-Aug-24 19:33N 43°23' E 004°50'0 0.0
2014-Aug-24 18:33N 43°23' E 004°50'0 0.0
2014-Aug-24 17:33N 43°23' E 004°50'0 0.0
2014-Aug-24 15:30N 43°23' E 004°50'0 0.0
2014-Aug-24 14:28N 43°23' E 004°50'0 0.0
2014-Aug-24 13:33N 43°23' E 004°50'0 0.0
2014-Aug-24 12:33N 43°23' E 004°50'0 0.0
2014-Aug-24 11:33N 43°23' E 004°50'0 0.0
2014-Aug-24 10:31N 43°23' E 004°50'0 0.0
2014-Aug-24 09:33N 43°23' E 004°50'0 0.0
2014-Aug-24 08:33N 43°23' E 004°50'0 0.0
2014-Aug-24 07:33N 43°23' E 004°50'0 0.0
2014-Aug-24 06:33N 43°23' E 004°50'0 0.0
2014-Aug-24 05:24N 43°23' E 004°50'0 0.0
2014-Aug-24 04:33N 43°23' E 004°50'0 0.0
2014-Aug-24 03:30N 43°23' E 004°50'0 0.0
2014-Aug-24 02:24N 43°23' E 004°50'0 0.0
2014-Aug-24 01:33N 43°23' E 004°50'0 0.0
2014-Aug-24 00:33N 43°23' E 004°50'0 0.0
2014-Aug-23 23:33N 43°23' E 004°50'0 0.0
2014-Aug-23 22:33N 43°23' E 004°50'0 0.0
2014-Aug-23 21:33N 43°23' E 004°50'0 0.0
2014-Aug-23 20:33N 43°23' E 004°50'0 0.0
2014-Aug-23 19:33N 43°23' E 004°50'2 0.1
2014-Aug-23 00:33N 43°23' E 004°48'0 0.0
2014-Aug-22 23:19N 43°23' E 004°48'0 0.0
2014-Aug-22 22:30N 43°23' E 004°48'0 0.0
2014-Aug-22 21:24N 43°23' E 004°48'0 0.0
2014-Aug-22 20:30N 43°23' E 004°48'0 0.0
2014-Aug-22 19:33N 43°23' E 004°48'0 0.0
2014-Aug-22 17:20N 43°23' E 004°48'0 0.0
2014-Aug-22 16:33N 43°23' E 004°48'0 0.0
2014-Aug-22 12:19N 43°23' E 004°48'3 3.9
2014-Aug-22 11:33N 43°25' E 004°45'6 6.1
2014-Aug-22 10:32N 43°31' E 004°44'  

Dump ship's entire track history